sensor_id;sensor_type;location;lat;lon;timestamp;P1;durP1;ratioP1;P2;durP2;ratioP2
27275;SDS011;14772;47.398;8.080;2022-12-18T00:01:48;37.27;;;18.57;;
27275;SDS011;14772;47.398;8.080;2022-12-18T00:06:46;39.40;;;19.23;;
27275;SDS011;14772;47.398;8.080;2022-12-18T00:11:43;40.33;;;19.40;;
27275;SDS011;14772;47.398;8.080;2022-12-18T00:16:42;36.87;;;19.13;;
27275;SDS011;14772;47.398;8.080;2022-12-18T00:21:41;39.40;;;19.50;;
27275;SDS011;14772;47.398;8.080;2022-12-18T00:26:39;37.70;;;18.77;;
27275;SDS011;14772;47.398;8.080;2022-12-18T00:31:36;38.93;;;19.47;;
27275;SDS011;14772;47.398;8.080;2022-12-18T00:36:34;42.67;;;20.33;;
27275;SDS011;14772;47.398;8.080;2022-12-18T00:41:31;43.17;;;19.90;;
27275;SDS011;14772;47.398;8.080;2022-12-18T00:46:29;40.17;;;19.60;;
27275;SDS011;14772;47.398;8.080;2022-12-18T00:51:27;41.73;;;19.63;;
27275;SDS011;14772;47.398;8.080;2022-12-18T00:56:25;39.00;;;18.80;;
27275;SDS011;14772;47.398;8.080;2022-12-18T01:01:22;37.07;;;18.93;;
27275;SDS011;14772;47.398;8.080;2022-12-18T01:06:19;39.97;;;18.70;;
27275;SDS011;14772;47.398;8.080;2022-12-18T01:11:17;38.10;;;19.70;;
27275;SDS011;14772;47.398;8.080;2022-12-18T01:16:16;38.97;;;18.97;;
27275;SDS011;14772;47.398;8.080;2022-12-18T01:21:15;39.37;;;18.93;;
27275;SDS011;14772;47.398;8.080;2022-12-18T01:26:13;40.03;;;19.07;;
27275;SDS011;14772;47.398;8.080;2022-12-18T01:31:12;43.10;;;19.67;;
27275;SDS011;14772;47.398;8.080;2022-12-18T01:36:15;41.47;;;18.03;;
27275;SDS011;14772;47.398;8.080;2022-12-18T01:41:16;40.60;;;17.27;;
27275;SDS011;14772;47.398;8.080;2022-12-18T01:46:24;45.83;;;17.37;;
27275;SDS011;14772;47.398;8.080;2022-12-18T01:51:22;39.77;;;16.63;;
27275;SDS011;14772;47.398;8.080;2022-12-18T01:56:20;40.20;;;16.13;;
27275;SDS011;14772;47.398;8.080;2022-12-18T02:01:18;36.83;;;15.40;;
27275;SDS011;14772;47.398;8.080;2022-12-18T02:06:18;39.33;;;16.47;;
27275;SDS011;14772;47.398;8.080;2022-12-18T02:11:21;37.70;;;15.43;;
27275;SDS011;14772;47.398;8.080;2022-12-18T02:16:24;41.37;;;16.10;;
27275;SDS011;14772;47.398;8.080;2022-12-18T02:21:26;38.73;;;15.90;;
27275;SDS011;14772;47.398;8.080;2022-12-18T02:26:29;39.70;;;16.13;;
27275;SDS011;14772;47.398;8.080;2022-12-18T02:31:29;41.67;;;15.73;;
27275;SDS011;14772;47.398;8.080;2022-12-18T02:36:32;36.57;;;15.23;;
27275;SDS011;14772;47.398;8.080;2022-12-18T02:41:32;32.27;;;14.17;;
27275;SDS011;14772;47.398;8.080;2022-12-18T02:46:32;38.33;;;15.23;;
27275;SDS011;14772;47.398;8.080;2022-12-18T02:51:33;39.73;;;15.10;;
27275;SDS011;14772;47.398;8.080;2022-12-18T02:56:34;34.13;;;14.90;;
27275;SDS011;14772;47.398;8.080;2022-12-18T03:01:35;36.23;;;14.30;;
27275;SDS011;14772;47.398;8.080;2022-12-18T03:06:37;40.47;;;15.30;;
27275;SDS011;14772;47.398;8.080;2022-12-18T03:11:38;38.13;;;16.30;;
27275;SDS011;14772;47.398;8.080;2022-12-18T03:16:38;38.33;;;15.93;;
27275;SDS011;14772;47.398;8.080;2022-12-18T03:21:41;36.70;;;15.63;;
27275;SDS011;14772;47.398;8.080;2022-12-18T03:26:40;37.83;;;15.40;;
27275;SDS011;14772;47.398;8.080;2022-12-18T03:31:40;32.83;;;14.43;;
27275;SDS011;14772;47.398;8.080;2022-12-18T03:36:41;40.60;;;16.40;;
27275;SDS011;14772;47.398;8.080;2022-12-18T03:41:40;38.13;;;15.77;;
27275;SDS011;14772;47.398;8.080;2022-12-18T03:46:55;37.37;;;15.37;;
27275;SDS011;14772;47.398;8.080;2022-12-18T03:51:57;39.43;;;16.07;;
27275;SDS011;14772;47.398;8.080;2022-12-18T03:56:57;37.40;;;14.70;;
27275;SDS011;14772;47.398;8.080;2022-12-18T04:07:14;36.07;;;15.03;;
27275;SDS011;14772;47.398;8.080;2022-12-18T04:12:12;34.87;;;14.50;;
27275;SDS011;14772;47.398;8.080;2022-12-18T04:17:09;35.67;;;14.43;;
27275;SDS011;14772;47.398;8.080;2022-12-18T04:22:08;37.97;;;16.00;;
27275;SDS011;14772;47.398;8.080;2022-12-18T04:27:06;36.50;;;15.40;;
27275;SDS011;14772;47.398;8.080;2022-12-18T04:32:04;34.97;;;14.90;;
27275;SDS011;14772;47.398;8.080;2022-12-18T04:37:01;36.10;;;14.63;;
27275;SDS011;14772;47.398;8.080;2022-12-18T04:41:58;34.53;;;14.13;;
27275;SDS011;14772;47.398;8.080;2022-12-18T04:46:56;33.47;;;14.47;;
27275;SDS011;14772;47.398;8.080;2022-12-18T04:51:53;36.40;;;15.00;;
27275;SDS011;14772;47.398;8.080;2022-12-18T04:56:51;36.70;;;15.40;;
27275;SDS011;14772;47.398;8.080;2022-12-18T05:01:48;35.63;;;14.53;;
27275;SDS011;14772;47.398;8.080;2022-12-18T05:06:46;40.33;;;17.37;;
27275;SDS011;14772;47.398;8.080;2022-12-18T05:11:43;36.77;;;16.07;;
27275;SDS011;14772;47.398;8.080;2022-12-18T05:21:52;33.17;;;14.57;;
27275;SDS011;14772;47.398;8.080;2022-12-18T05:26:50;37.97;;;16.33;;
27275;SDS011;14772;47.398;8.080;2022-12-18T05:31:48;41.10;;;16.23;;
27275;SDS011;14772;47.398;8.080;2022-12-18T05:36:45;38.57;;;16.20;;
27275;SDS011;14772;47.398;8.080;2022-12-18T05:41:42;34.10;;;14.40;;
27275;SDS011;14772;47.398;8.080;2022-12-18T05:46:40;36.03;;;14.90;;
27275;SDS011;14772;47.398;8.080;2022-12-18T05:51:37;35.53;;;15.00;;
27275;SDS011;14772;47.398;8.080;2022-12-18T05:56:34;35.73;;;15.27;;
27275;SDS011;14772;47.398;8.080;2022-12-18T06:01:32;33.57;;;14.50;;
27275;SDS011;14772;47.398;8.080;2022-12-18T06:06:29;36.43;;;15.07;;
27275;SDS011;14772;47.398;8.080;2022-12-18T06:11:26;36.53;;;15.53;;
27275;SDS011;14772;47.398;8.080;2022-12-18T06:16:24;36.10;;;15.47;;
27275;SDS011;14772;47.398;8.080;2022-12-18T06:21:21;34.93;;;15.30;;
27275;SDS011;14772;47.398;8.080;2022-12-18T06:26:18;39.10;;;16.50;;
27275;SDS011;14772;47.398;8.080;2022-12-18T06:31:16;34.23;;;15.33;;
27275;SDS011;14772;47.398;8.080;2022-12-18T06:36:13;36.50;;;15.63;;
27275;SDS011;14772;47.398;8.080;2022-12-18T06:41:11;40.50;;;16.30;;
27275;SDS011;14772;47.398;8.080;2022-12-18T06:46:11;39.33;;;16.40;;
27275;SDS011;14772;47.398;8.080;2022-12-18T06:51:08;34.80;;;14.57;;
27275;SDS011;14772;47.398;8.080;2022-12-18T06:56:06;39.23;;;15.63;;
27275;SDS011;14772;47.398;8.080;2022-12-18T07:01:04;38.60;;;16.13;;
27275;SDS011;14772;47.398;8.080;2022-12-18T07:06:03;36.90;;;15.40;;
27275;SDS011;14772;47.398;8.080;2022-12-18T07:11:03;34.40;;;14.77;;
27275;SDS011;14772;47.398;8.080;2022-12-18T07:16:07;34.70;;;15.27;;
27275;SDS011;14772;47.398;8.080;2022-12-18T07:21:06;35.60;;;15.23;;
27275;SDS011;14772;47.398;8.080;2022-12-18T07:26:06;34.23;;;14.60;;
27275;SDS011;14772;47.398;8.080;2022-12-18T07:31:05;34.67;;;15.03;;
27275;SDS011;14772;47.398;8.080;2022-12-18T07:36:05;35.93;;;14.40;;
27275;SDS011;14772;47.398;8.080;2022-12-18T07:41:05;36.63;;;14.63;;
27275;SDS011;14772;47.398;8.080;2022-12-18T07:46:04;35.70;;;14.90;;
27275;SDS011;14772;47.398;8.080;2022-12-18T07:51:03;35.13;;;14.63;;
27275;SDS011;14772;47.398;8.080;2022-12-18T07:56:03;35.33;;;14.77;;
27275;SDS011;14772;47.398;8.080;2022-12-18T08:01:03;37.40;;;15.47;;
27275;SDS011;14772;47.398;8.080;2022-12-18T08:06:03;34.37;;;15.13;;
27275;SDS011;14772;47.398;8.080;2022-12-18T08:11:02;33.67;;;15.23;;
27275;SDS011;14772;47.398;8.080;2022-12-18T08:16:00;36.27;;;15.47;;
27275;SDS011;14772;47.398;8.080;2022-12-18T08:21:02;34.40;;;14.67;;
27275;SDS011;14772;47.398;8.080;2022-12-18T08:26:04;33.37;;;14.23;;
27275;SDS011;14772;47.398;8.080;2022-12-18T08:36:19;34.30;;;14.53;;
27275;SDS011;14772;47.398;8.080;2022-12-18T08:41:17;32.60;;;13.67;;
27275;SDS011;14772;47.398;8.080;2022-12-18T08:46:14;31.27;;;14.00;;
27275;SDS011;14772;47.398;8.080;2022-12-18T08:51:12;32.43;;;13.40;;
27275;SDS011;14772;47.398;8.080;2022-12-18T08:56:11;33.33;;;14.30;;
27275;SDS011;14772;47.398;8.080;2022-12-18T09:01:09;30.43;;;13.73;;
27275;SDS011;14772;47.398;8.080;2022-12-18T09:06:07;32.43;;;13.77;;
27275;SDS011;14772;47.398;8.080;2022-12-18T09:11:09;32.07;;;13.50;;
27275;SDS011;14772;47.398;8.080;2022-12-18T09:16:08;32.90;;;13.87;;
27275;SDS011;14772;47.398;8.080;2022-12-18T09:21:09;28.97;;;12.47;;
27275;SDS011;14772;47.398;8.080;2022-12-18T09:26:07;30.87;;;13.77;;
27275;SDS011;14772;47.398;8.080;2022-12-18T09:31:05;32.80;;;13.63;;
27275;SDS011;14772;47.398;8.080;2022-12-18T09:36:05;30.53;;;12.73;;
27275;SDS011;14772;47.398;8.080;2022-12-18T09:41:05;32.13;;;13.20;;
27275;SDS011;14772;47.398;8.080;2022-12-18T09:46:15;30.73;;;12.97;;
27275;SDS011;14772;47.398;8.080;2022-12-18T09:51:14;30.63;;;13.40;;
27275;SDS011;14772;47.398;8.080;2022-12-18T09:56:16;32.10;;;13.43;;
27275;SDS011;14772;47.398;8.080;2022-12-18T10:01:15;28.63;;;12.67;;
27275;SDS011;14772;47.398;8.080;2022-12-18T10:06:18;30.67;;;12.73;;
27275;SDS011;14772;47.398;8.080;2022-12-18T10:11:21;30.03;;;12.70;;
27275;SDS011;14772;47.398;8.080;2022-12-18T10:16:25;27.93;;;12.87;;
27275;SDS011;14772;47.398;8.080;2022-12-18T10:21:28;30.10;;;13.30;;
27275;SDS011;14772;47.398;8.080;2022-12-18T10:26:28;31.00;;;13.37;;
27275;SDS011;14772;47.398;8.080;2022-12-18T10:31:27;31.70;;;13.30;;
27275;SDS011;14772;47.398;8.080;2022-12-18T10:36:24;28.57;;;12.50;;
27275;SDS011;14772;47.398;8.080;2022-12-18T10:41:25;28.70;;;12.50;;
27275;SDS011;14772;47.398;8.080;2022-12-18T10:46:23;31.23;;;13.60;;
27275;SDS011;14772;47.398;8.080;2022-12-18T10:51:20;30.57;;;12.83;;
27275;SDS011;14772;47.398;8.080;2022-12-18T10:56:20;27.93;;;12.47;;
27275;SDS011;14772;47.398;8.080;2022-12-18T11:01:18;28.73;;;12.57;;
27275;SDS011;14772;47.398;8.080;2022-12-18T11:06:16;28.13;;;12.30;;
27275;SDS011;14772;47.398;8.080;2022-12-18T11:11:19;34.93;;;13.47;;
27275;SDS011;14772;47.398;8.080;2022-12-18T11:16:18;31.13;;;13.07;;
27275;SDS011;14772;47.398;8.080;2022-12-18T11:21:16;29.17;;;12.70;;
27275;SDS011;14772;47.398;8.080;2022-12-18T11:26:13;30.37;;;12.63;;
27275;SDS011;14772;47.398;8.080;2022-12-18T11:31:21;30.70;;;12.70;;
27275;SDS011;14772;47.398;8.080;2022-12-18T11:36:20;28.77;;;12.77;;
27275;SDS011;14772;47.398;8.080;2022-12-18T11:41:20;29.40;;;13.43;;
27275;SDS011;14772;47.398;8.080;2022-12-18T11:46:24;33.13;;;12.97;;
27275;SDS011;14772;47.398;8.080;2022-12-18T11:51:25;30.40;;;12.73;;
27275;SDS011;14772;47.398;8.080;2022-12-18T11:56:27;28.97;;;12.97;;
27275;SDS011;14772;47.398;8.080;2022-12-18T12:01:31;29.07;;;12.23;;
27275;SDS011;14772;47.398;8.080;2022-12-18T12:06:35;29.57;;;12.50;;
27275;SDS011;14772;47.398;8.080;2022-12-18T12:11:37;29.63;;;12.67;;
27275;SDS011;14772;47.398;8.080;2022-12-18T12:16:40;29.60;;;13.03;;
27275;SDS011;14772;47.398;8.080;2022-12-18T12:21:41;27.93;;;12.70;;
27275;SDS011;14772;47.398;8.080;2022-12-18T12:26:42;28.40;;;12.77;;
27275;SDS011;14772;47.398;8.080;2022-12-18T12:31:45;28.43;;;12.43;;
27275;SDS011;14772;47.398;8.080;2022-12-18T12:36:55;28.27;;;12.20;;
27275;SDS011;14772;47.398;8.080;2022-12-18T12:41:57;30.20;;;11.93;;
27275;SDS011;14772;47.398;8.080;2022-12-18T12:46:55;26.20;;;12.03;;
27275;SDS011;14772;47.398;8.080;2022-12-18T12:51:58;28.53;;;12.00;;
27275;SDS011;14772;47.398;8.080;2022-12-18T12:56:57;28.13;;;11.97;;
27275;SDS011;14772;47.398;8.080;2022-12-18T13:01:59;27.03;;;12.13;;
27275;SDS011;14772;47.398;8.080;2022-12-18T13:07:00;31.80;;;13.07;;
27275;SDS011;14772;47.398;8.080;2022-12-18T13:12:02;28.43;;;12.40;;
27275;SDS011;14772;47.398;8.080;2022-12-18T13:22:23;28.03;;;11.63;;
27275;SDS011;14772;47.398;8.080;2022-12-18T13:33:13;27.90;;;11.87;;
27275;SDS011;14772;47.398;8.080;2022-12-18T13:38:34;28.83;;;12.03;;
27275;SDS011;14772;47.398;8.080;2022-12-18T13:43:33;27.57;;;11.47;;
27275;SDS011;14772;47.398;8.080;2022-12-18T13:48:37;28.77;;;12.13;;
27275;SDS011;14772;47.398;8.080;2022-12-18T13:53:37;27.03;;;11.63;;
27275;SDS011;14772;47.398;8.080;2022-12-18T13:58:37;27.17;;;12.13;;
27275;SDS011;14772;47.398;8.080;2022-12-18T14:03:34;30.60;;;12.87;;
27275;SDS011;14772;47.398;8.080;2022-12-18T14:08:40;28.43;;;11.87;;
27275;SDS011;14772;47.398;8.080;2022-12-18T14:13:40;29.67;;;12.73;;
27275;SDS011;14772;47.398;8.080;2022-12-18T14:18:41;30.50;;;13.63;;
27275;SDS011;14772;47.398;8.080;2022-12-18T14:23:40;28.20;;;12.20;;
27275;SDS011;14772;47.398;8.080;2022-12-18T14:28:43;30.30;;;12.70;;
27275;SDS011;14772;47.398;8.080;2022-12-18T14:33:40;28.03;;;11.90;;
27275;SDS011;14772;47.398;8.080;2022-12-18T14:38:38;28.67;;;11.70;;
27275;SDS011;14772;47.398;8.080;2022-12-18T14:43:36;28.23;;;11.93;;
27275;SDS011;14772;47.398;8.080;2022-12-18T14:48:36;27.17;;;11.90;;
27275;SDS011;14772;47.398;8.080;2022-12-18T14:53:36;27.27;;;11.97;;
27275;SDS011;14772;47.398;8.080;2022-12-18T14:58:35;26.80;;;11.33;;
27275;SDS011;14772;47.398;8.080;2022-12-18T15:03:33;30.90;;;12.10;;
27275;SDS011;14772;47.398;8.080;2022-12-18T15:08:32;29.13;;;12.77;;
27275;SDS011;14772;47.398;8.080;2022-12-18T15:13:31;28.00;;;11.40;;
27275;SDS011;14772;47.398;8.080;2022-12-18T15:18:31;27.07;;;11.63;;
27275;SDS011;14772;47.398;8.080;2022-12-18T15:23:31;25.53;;;11.77;;
27275;SDS011;14772;47.398;8.080;2022-12-18T15:28:32;28.23;;;11.50;;
27275;SDS011;14772;47.398;8.080;2022-12-18T15:33:32;27.93;;;12.13;;
27275;SDS011;14772;47.398;8.080;2022-12-18T15:38:30;29.50;;;12.43;;
27275;SDS011;14772;47.398;8.080;2022-12-18T15:43:28;28.97;;;11.23;;
27275;SDS011;14772;47.398;8.080;2022-12-18T15:48:26;26.00;;;11.40;;
27275;SDS011;14772;47.398;8.080;2022-12-18T15:53:23;26.33;;;11.30;;
27275;SDS011;14772;47.398;8.080;2022-12-18T15:58:21;27.13;;;11.30;;
27275;SDS011;14772;47.398;8.080;2022-12-18T16:03:18;26.70;;;11.13;;
27275;SDS011;14772;47.398;8.080;2022-12-18T16:08:16;26.23;;;11.03;;
27275;SDS011;14772;47.398;8.080;2022-12-18T16:13:13;27.67;;;11.33;;
27275;SDS011;14772;47.398;8.080;2022-12-18T16:18:14;27.20;;;11.27;;
27275;SDS011;14772;47.398;8.080;2022-12-18T16:23:11;27.00;;;11.27;;
27275;SDS011;14772;47.398;8.080;2022-12-18T16:28:08;28.23;;;12.13;;
27275;SDS011;14772;47.398;8.080;2022-12-18T16:33:05;30.13;;;13.33;;
27275;SDS011;14772;47.398;8.080;2022-12-18T16:38:04;32.40;;;13.27;;
27275;SDS011;14772;47.398;8.080;2022-12-18T16:43:01;29.43;;;12.30;;
27275;SDS011;14772;47.398;8.080;2022-12-18T16:47:58;33.23;;;13.63;;
27275;SDS011;14772;47.398;8.080;2022-12-18T16:52:56;32.83;;;13.30;;
27275;SDS011;14772;47.398;8.080;2022-12-18T16:57:53;30.20;;;12.70;;
27275;SDS011;14772;47.398;8.080;2022-12-18T17:02:50;30.33;;;12.57;;
27275;SDS011;14772;47.398;8.080;2022-12-18T17:07:47;28.57;;;12.53;;
27275;SDS011;14772;47.398;8.080;2022-12-18T17:12:44;31.30;;;13.10;;
27275;SDS011;14772;47.398;8.080;2022-12-18T17:17:42;31.83;;;12.20;;
27275;SDS011;14772;47.398;8.080;2022-12-18T17:22:39;30.87;;;13.00;;
27275;SDS011;14772;47.398;8.080;2022-12-18T17:27:36;29.97;;;13.10;;
27275;SDS011;14772;47.398;8.080;2022-12-18T17:32:34;31.17;;;13.20;;
27275;SDS011;14772;47.398;8.080;2022-12-18T17:37:31;31.37;;;14.03;;
27275;SDS011;14772;47.398;8.080;2022-12-18T17:42:38;31.63;;;14.10;;
27275;SDS011;14772;47.398;8.080;2022-12-18T17:47:35;32.33;;;13.47;;
27275;SDS011;14772;47.398;8.080;2022-12-18T17:52:33;33.27;;;13.77;;
27275;SDS011;14772;47.398;8.080;2022-12-18T17:57:30;33.00;;;13.73;;
27275;SDS011;14772;47.398;8.080;2022-12-18T18:02:27;36.93;;;14.50;;
27275;SDS011;14772;47.398;8.080;2022-12-18T18:07:24;34.23;;;14.40;;
27275;SDS011;14772;47.398;8.080;2022-12-18T18:12:22;36.40;;;14.90;;
27275;SDS011;14772;47.398;8.080;2022-12-18T18:17:19;32.00;;;13.67;;
27275;SDS011;14772;47.398;8.080;2022-12-18T18:22:16;34.40;;;14.47;;
27275;SDS011;14772;47.398;8.080;2022-12-18T18:27:13;32.40;;;13.30;;
27275;SDS011;14772;47.398;8.080;2022-12-18T18:32:11;30.93;;;13.40;;
27275;SDS011;14772;47.398;8.080;2022-12-18T18:37:08;32.73;;;14.50;;
27275;SDS011;14772;47.398;8.080;2022-12-18T18:42:05;36.40;;;15.57;;
27275;SDS011;14772;47.398;8.080;2022-12-18T18:47:04;35.37;;;16.10;;
27275;SDS011;14772;47.398;8.080;2022-12-18T18:52:01;35.77;;;16.03;;
27275;SDS011;14772;47.398;8.080;2022-12-18T18:56:58;41.43;;;17.23;;
27275;SDS011;14772;47.398;8.080;2022-12-18T19:01:55;39.57;;;16.97;;
27275;SDS011;14772;47.398;8.080;2022-12-18T19:06:53;39.20;;;16.47;;
27275;SDS011;14772;47.398;8.080;2022-12-18T19:11:50;36.77;;;15.80;;
27275;SDS011;14772;47.398;8.080;2022-12-18T19:16:47;35.17;;;15.83;;
27275;SDS011;14772;47.398;8.080;2022-12-18T19:21:44;35.77;;;15.70;;
27275;SDS011;14772;47.398;8.080;2022-12-18T19:26:41;33.27;;;15.13;;
27275;SDS011;14772;47.398;8.080;2022-12-18T19:31:39;38.33;;;14.90;;
27275;SDS011;14772;47.398;8.080;2022-12-18T19:36:37;37.00;;;15.77;;
27275;SDS011;14772;47.398;8.080;2022-12-18T19:41:35;37.87;;;16.63;;
27275;SDS011;14772;47.398;8.080;2022-12-18T19:46:32;39.13;;;16.10;;
27275;SDS011;14772;47.398;8.080;2022-12-18T19:51:30;39.57;;;16.23;;
27275;SDS011;14772;47.398;8.080;2022-12-18T19:56:28;37.10;;;15.47;;
27275;SDS011;14772;47.398;8.080;2022-12-18T20:01:27;35.30;;;15.30;;
27275;SDS011;14772;47.398;8.080;2022-12-18T20:06:26;37.20;;;15.67;;
27275;SDS011;14772;47.398;8.080;2022-12-18T20:11:25;38.43;;;16.53;;
27275;SDS011;14772;47.398;8.080;2022-12-18T20:16:22;38.10;;;16.10;;
27275;SDS011;14772;47.398;8.080;2022-12-18T20:21:19;34.57;;;14.70;;
27275;SDS011;14772;47.398;8.080;2022-12-18T20:26:16;36.50;;;16.00;;
27275;SDS011;14772;47.398;8.080;2022-12-18T20:31:14;36.07;;;15.07;;
27275;SDS011;14772;47.398;8.080;2022-12-18T20:36:13;36.83;;;15.83;;
27275;SDS011;14772;47.398;8.080;2022-12-18T20:41:13;38.73;;;16.80;;
27275;SDS011;14772;47.398;8.080;2022-12-18T20:46:13;37.67;;;16.17;;
27275;SDS011;14772;47.398;8.080;2022-12-18T20:51:12;34.70;;;15.30;;
27275;SDS011;14772;47.398;8.080;2022-12-18T20:56:12;38.60;;;16.83;;
27275;SDS011;14772;47.398;8.080;2022-12-18T21:01:12;40.90;;;17.90;;
27275;SDS011;14772;47.398;8.080;2022-12-18T21:06:12;39.30;;;16.37;;
27275;SDS011;14772;47.398;8.080;2022-12-18T21:11:14;37.97;;;16.47;;
27275;SDS011;14772;47.398;8.080;2022-12-18T21:16:13;35.83;;;15.10;;
27275;SDS011;14772;47.398;8.080;2022-12-18T21:21:10;39.80;;;16.37;;
27275;SDS011;14772;47.398;8.080;2022-12-18T21:26:15;37.33;;;16.47;;
27275;SDS011;14772;47.398;8.080;2022-12-18T21:31:13;37.03;;;15.10;;
27275;SDS011;14772;47.398;8.080;2022-12-18T21:36:10;35.97;;;15.70;;
27275;SDS011;14772;47.398;8.080;2022-12-18T21:41:08;35.00;;;15.40;;
27275;SDS011;14772;47.398;8.080;2022-12-18T21:46:06;35.97;;;15.47;;
27275;SDS011;14772;47.398;8.080;2022-12-18T21:51:03;39.43;;;16.47;;
27275;SDS011;14772;47.398;8.080;2022-12-18T21:56:01;36.57;;;15.83;;
27275;SDS011;14772;47.398;8.080;2022-12-18T22:00:58;40.40;;;17.07;;
27275;SDS011;14772;47.398;8.080;2022-12-18T22:05:56;43.03;;;18.77;;
27275;SDS011;14772;47.398;8.080;2022-12-18T22:10:54;41.27;;;17.13;;
27275;SDS011;14772;47.398;8.080;2022-12-18T22:15:51;38.60;;;17.47;;
27275;SDS011;14772;47.398;8.080;2022-12-18T22:20:48;37.60;;;16.57;;
27275;SDS011;14772;47.398;8.080;2022-12-18T22:25:47;38.53;;;16.67;;
27275;SDS011;14772;47.398;8.080;2022-12-18T22:30:44;43.33;;;18.17;;
27275;SDS011;14772;47.398;8.080;2022-12-18T22:35:41;43.57;;;17.53;;
27275;SDS011;14772;47.398;8.080;2022-12-18T22:40:39;41.83;;;18.97;;
27275;SDS011;14772;47.398;8.080;2022-12-18T22:45:36;44.40;;;19.30;;
27275;SDS011;14772;47.398;8.080;2022-12-18T22:50:33;44.37;;;19.57;;
27275;SDS011;14772;47.398;8.080;2022-12-18T22:55:30;43.63;;;18.23;;
27275;SDS011;14772;47.398;8.080;2022-12-18T23:00:28;43.23;;;19.90;;
27275;SDS011;14772;47.398;8.080;2022-12-18T23:05:25;46.27;;;19.67;;
27275;SDS011;14772;47.398;8.080;2022-12-18T23:10:22;43.43;;;18.70;;
27275;SDS011;14772;47.398;8.080;2022-12-18T23:15:20;46.90;;;19.97;;
27275;SDS011;14772;47.398;8.080;2022-12-18T23:20:17;48.47;;;19.57;;
27275;SDS011;14772;47.398;8.080;2022-12-18T23:25:14;42.23;;;18.87;;
27275;SDS011;14772;47.398;8.080;2022-12-18T23:30:12;42.60;;;18.83;;
27275;SDS011;14772;47.398;8.080;2022-12-18T23:35:09;46.33;;;19.90;;
27275;SDS011;14772;47.398;8.080;2022-12-18T23:40:08;42.07;;;19.70;;
27275;SDS011;14772;47.398;8.080;2022-12-18T23:45:07;46.17;;;20.53;;
27275;SDS011;14772;47.398;8.080;2022-12-18T23:50:06;44.27;;;19.70;;
27275;SDS011;14772;47.398;8.080;2022-12-18T23:55:05;43.73;;;19.20;;
